sensor_id;sensor_type;location;lat;lon;timestamp;pressure;altitude;pressure_sealevel;temperature;humidity
56582;BME280;42463;52.214;21.238;2023-04-08T00:00:12;100947.45;;;8.00;58.76
56582;BME280;42463;52.214;21.238;2023-04-08T00:02:36;100947.16;;;8.01;58.85
56582;BME280;42463;52.214;21.238;2023-04-08T00:04:41;100947.73;;;8.03;58.89
56582;BME280;42463;52.214;21.238;2023-04-08T00:06:45;100950.01;;;8.03;58.87
56582;BME280;42463;52.214;21.238;2023-04-08T00:08:49;100951.52;;;8.05;58.87
56582;BME280;42463;52.214;21.238;2023-04-08T00:10:53;100957.40;;;8.08;58.88
56582;BME280;42463;52.214;21.238;2023-04-08T00:12:57;100959.04;;;8.10;59.03
56582;BME280;42463;52.214;21.238;2023-04-08T00:15:04;100960.26;;;8.13;58.76
56582;BME280;42463;52.214;21.238;2023-04-08T00:17:08;100955.12;;;8.15;58.72
56582;BME280;42463;52.214;21.238;2023-04-08T00:19:12;100951.33;;;8.15;58.55
56582;BME280;42463;52.214;21.238;2023-04-08T00:21:16;100950.18;;;8.14;58.59
56582;BME280;42463;52.214;21.238;2023-04-08T00:23:22;100947.76;;;8.14;58.66
56582;BME280;42463;52.214;21.238;2023-04-08T00:25:27;100949.25;;;8.15;58.56
56582;BME280;42463;52.214;21.238;2023-04-08T00:27:31;100948.40;;;8.16;58.71
56582;BME280;42463;52.214;21.238;2023-04-08T00:29:35;100950.52;;;8.18;58.82
56582;BME280;42463;52.214;21.238;2023-04-08T00:31:39;100954.75;;;8.21;58.68
56582;BME280;42463;52.214;21.238;2023-04-08T00:33:43;100953.80;;;8.23;58.59
56582;BME280;42463;52.214;21.238;2023-04-08T00:35:48;100953.23;;;8.24;58.55
56582;BME280;42463;52.214;21.238;2023-04-08T00:37:52;100957.74;;;8.25;58.50
56582;BME280;42463;52.214;21.238;2023-04-08T00:39:57;100954.38;;;8.24;58.35
56582;BME280;42463;52.214;21.238;2023-04-08T00:42:01;100954.98;;;8.23;58.37
56582;BME280;42463;52.214;21.238;2023-04-08T00:44:06;100956.36;;;8.22;58.22
56582;BME280;42463;52.214;21.238;2023-04-08T00:46:10;100956.95;;;8.22;58.33
56582;BME280;42463;52.214;21.238;2023-04-08T00:48:14;100953.50;;;8.21;58.36
56582;BME280;42463;52.214;21.238;2023-04-08T00:50:18;100954.41;;;8.18;58.31
56582;BME280;42463;52.214;21.238;2023-04-08T00:52:23;100959.48;;;8.18;58.09
56582;BME280;42463;52.214;21.238;2023-04-08T00:54:27;100963.31;;;8.18;58.12
56582;BME280;42463;52.214;21.238;2023-04-08T00:56:31;100964.55;;;8.18;57.99
56582;BME280;42463;52.214;21.238;2023-04-08T00:58:36;100968.91;;;8.19;58.08
56582;BME280;42463;52.214;21.238;2023-04-08T01:03:44;100969.40;;;8.20;58.06
56582;BME280;42463;52.214;21.238;2023-04-08T01:05:54;100961.08;;;8.17;57.98
56582;BME280;42463;52.214;21.238;2023-04-08T01:07:59;100972.38;;;8.21;57.93
56582;BME280;42463;52.214;21.238;2023-04-08T01:10:06;100972.89;;;8.20;58.01
56582;BME280;42463;52.214;21.238;2023-04-08T01:12:16;100976.59;;;8.17;58.10
56582;BME280;42463;52.214;21.238;2023-04-08T01:14:22;100977.55;;;8.13;58.36
56582;BME280;42463;52.214;21.238;2023-04-08T01:16:29;100974.10;;;8.08;58.36
56582;BME280;42463;52.214;21.238;2023-04-08T01:18:33;100972.52;;;8.04;58.26
56582;BME280;42463;52.214;21.238;2023-04-08T01:20:39;100974.30;;;8.02;58.44
56582;BME280;42463;52.214;21.238;2023-04-08T01:22:49;100972.09;;;7.98;58.47
56582;BME280;42463;52.214;21.238;2023-04-08T01:24:58;100978.80;;;7.96;58.60
56582;BME280;42463;52.214;21.238;2023-04-08T01:27:04;100977.41;;;7.91;58.40
56582;BME280;42463;52.214;21.238;2023-04-08T01:29:10;100973.67;;;7.85;58.71
56582;BME280;42463;52.214;21.238;2023-04-08T01:31:15;100971.27;;;7.81;58.82
56582;BME280;42463;52.214;21.238;2023-04-08T01:33:20;100968.52;;;7.76;58.71
56582;BME280;42463;52.214;21.238;2023-04-08T01:35:25;100966.23;;;7.68;58.77
56582;BME280;42463;52.214;21.238;2023-04-08T01:37:29;100965.20;;;7.63;58.93
56582;BME280;42463;52.214;21.238;2023-04-08T01:39:34;100968.87;;;7.61;58.85
56582;BME280;42463;52.214;21.238;2023-04-08T01:41:38;100979.30;;;7.61;58.98
56582;BME280;42463;52.214;21.238;2023-04-08T01:43:43;100985.23;;;7.61;59.08
56582;BME280;42463;52.214;21.238;2023-04-08T01:45:47;100984.23;;;7.62;59.14
56582;BME280;42463;52.214;21.238;2023-04-08T01:47:56;100985.14;;;7.62;59.13
56582;BME280;42463;52.214;21.238;2023-04-08T01:50:01;100988.73;;;7.61;58.83
56582;BME280;42463;52.214;21.238;2023-04-08T01:52:05;100989.20;;;7.59;58.84
56582;BME280;42463;52.214;21.238;2023-04-08T01:54:12;100993.71;;;7.56;58.79
56582;BME280;42463;52.214;21.238;2023-04-08T01:56:17;100993.20;;;7.54;58.81
56582;BME280;42463;52.214;21.238;2023-04-08T01:58:24;100993.98;;;7.51;58.80
56582;BME280;42463;52.214;21.238;2023-04-08T02:00:32;100995.53;;;7.48;58.87
56582;BME280;42463;52.214;21.238;2023-04-08T02:02:37;100993.64;;;7.44;58.82
56582;BME280;42463;52.214;21.238;2023-04-08T02:04:43;100990.40;;;7.40;58.84
56582;BME280;42463;52.214;21.238;2023-04-08T02:06:47;100996.17;;;7.34;58.77
56582;BME280;42463;52.214;21.238;2023-04-08T02:08:52;100994.63;;;7.30;59.05
56582;BME280;42463;52.214;21.238;2023-04-08T02:10:57;100998.44;;;7.26;58.96
56582;BME280;42463;52.214;21.238;2023-04-08T02:13:01;101002.46;;;7.22;59.01
56582;BME280;42463;52.214;21.238;2023-04-08T02:15:07;101003.27;;;7.17;59.07
56582;BME280;42463;52.214;21.238;2023-04-08T02:17:12;101005.63;;;7.14;59.19
56582;BME280;42463;52.214;21.238;2023-04-08T02:19:18;101004.16;;;7.08;59.18
56582;BME280;42463;52.214;21.238;2023-04-08T02:21:26;101007.75;;;7.05;59.29
56582;BME280;42463;52.214;21.238;2023-04-08T02:23:34;101008.52;;;7.00;59.28
56582;BME280;42463;52.214;21.238;2023-04-08T02:25:41;101011.54;;;6.96;59.26
56582;BME280;42463;52.214;21.238;2023-04-08T02:27:49;101008.13;;;6.90;59.60
56582;BME280;42463;52.214;21.238;2023-04-08T02:29:54;101013.33;;;6.88;59.74
56582;BME280;42463;52.214;21.238;2023-04-08T02:32:00;101015.38;;;6.84;59.63
56582;BME280;42463;52.214;21.238;2023-04-08T02:34:05;101017.64;;;6.82;59.52
56582;BME280;42463;52.214;21.238;2023-04-08T02:36:09;101021.38;;;6.78;59.52
56582;BME280;42463;52.214;21.238;2023-04-08T02:38:14;101021.19;;;6.76;59.34
56582;BME280;42463;52.214;21.238;2023-04-08T02:40:22;101023.02;;;6.73;59.45
56582;BME280;42463;52.214;21.238;2023-04-08T02:42:27;101022.25;;;6.69;59.44
56582;BME280;42463;52.214;21.238;2023-04-08T02:44:31;101021.89;;;6.67;59.58
56582;BME280;42463;52.214;21.238;2023-04-08T02:46:38;101022.11;;;6.63;59.65
56582;BME280;42463;52.214;21.238;2023-04-08T02:48:42;101021.05;;;6.58;59.55
56582;BME280;42463;52.214;21.238;2023-04-08T02:50:46;101028.38;;;6.53;59.72
56582;BME280;42463;52.214;21.238;2023-04-08T02:52:50;101036.34;;;6.49;59.79
56582;BME280;42463;52.214;21.238;2023-04-08T02:54:54;101038.89;;;6.44;59.94
56582;BME280;42463;52.214;21.238;2023-04-08T02:56:58;101037.20;;;6.41;59.81
56582;BME280;42463;52.214;21.238;2023-04-08T02:59:03;101042.85;;;6.38;59.87
56582;BME280;42463;52.214;21.238;2023-04-08T03:01:07;101045.34;;;6.34;59.85
56582;BME280;42463;52.214;21.238;2023-04-08T03:03:11;101045.27;;;6.31;60.01
56582;BME280;42463;52.214;21.238;2023-04-08T03:05:15;101049.92;;;6.27;60.04
56582;BME280;42463;52.214;21.238;2023-04-08T03:07:19;101052.35;;;6.23;60.15
56582;BME280;42463;52.214;21.238;2023-04-08T03:09:23;101054.30;;;6.20;60.11
56582;BME280;42463;52.214;21.238;2023-04-08T03:11:28;101052.98;;;6.17;60.25
56582;BME280;42463;52.214;21.238;2023-04-08T03:13:32;101055.27;;;6.14;60.29
56582;BME280;42463;52.214;21.238;2023-04-08T03:15:37;101052.20;;;6.10;60.27
56582;BME280;42463;52.214;21.238;2023-04-08T03:17:41;101049.55;;;6.06;60.21
56582;BME280;42463;52.214;21.238;2023-04-08T03:19:45;101056.60;;;6.04;60.44
56582;BME280;42463;52.214;21.238;2023-04-08T03:21:49;101055.52;;;6.02;60.40
56582;BME280;42463;52.214;21.238;2023-04-08T03:23:53;101055.48;;;5.99;60.47
56582;BME280;42463;52.214;21.238;2023-04-08T03:25:57;101058.22;;;5.96;60.50
56582;BME280;42463;52.214;21.238;2023-04-08T03:28:02;101058.10;;;5.94;60.67
56582;BME280;42463;52.214;21.238;2023-04-08T03:30:07;101056.52;;;5.90;60.71
56582;BME280;42463;52.214;21.238;2023-04-08T03:32:11;101052.77;;;5.84;60.67
56582;BME280;42463;52.214;21.238;2023-04-08T03:34:15;101062.10;;;5.76;60.70
56582;BME280;42463;52.214;21.238;2023-04-08T03:36:19;101063.71;;;5.69;60.86
56582;BME280;42463;52.214;21.238;2023-04-08T03:38:24;101063.49;;;5.65;60.86
56582;BME280;42463;52.214;21.238;2023-04-08T03:40:28;101059.60;;;5.56;60.99
56582;BME280;42463;52.214;21.238;2023-04-08T03:42:32;101065.35;;;5.53;61.00
56582;BME280;42463;52.214;21.238;2023-04-08T03:44:37;101064.35;;;5.47;61.14
56582;BME280;42463;52.214;21.238;2023-04-08T03:46:41;101069.52;;;5.42;61.36
56582;BME280;42463;52.214;21.238;2023-04-08T03:48:45;101069.80;;;5.40;61.47
56582;BME280;42463;52.214;21.238;2023-04-08T03:50:49;101074.61;;;5.39;61.46
56582;BME280;42463;52.214;21.238;2023-04-08T03:52:53;101079.44;;;5.37;61.78
56582;BME280;42463;52.214;21.238;2023-04-08T03:54:57;101079.77;;;5.38;61.72
56582;BME280;42463;52.214;21.238;2023-04-08T03:57:01;101077.91;;;5.38;61.57
56582;BME280;42463;52.214;21.238;2023-04-08T03:59:06;101082.10;;;5.39;61.86
56582;BME280;42463;52.214;21.238;2023-04-08T04:01:10;101085.20;;;5.38;61.73
56582;BME280;42463;52.214;21.238;2023-04-08T04:03:14;101087.39;;;5.40;61.72
56582;BME280;42463;52.214;21.238;2023-04-08T04:05:18;101089.38;;;5.42;61.64
56582;BME280;42463;52.214;21.238;2023-04-08T04:07:22;101092.23;;;5.44;61.68
56582;BME280;42463;52.214;21.238;2023-04-08T04:09:26;101094.36;;;5.44;61.66
56582;BME280;42463;52.214;21.238;2023-04-08T04:11:30;101095.39;;;5.44;61.55
56582;BME280;42463;52.214;21.238;2023-04-08T04:13:37;101098.09;;;5.44;61.53
56582;BME280;42463;52.214;21.238;2023-04-08T04:15:41;101099.28;;;5.43;61.37
56582;BME280;42463;52.214;21.238;2023-04-08T04:17:46;101102.05;;;5.43;61.41
56582;BME280;42463;52.214;21.238;2023-04-08T04:19:52;101101.27;;;5.42;61.37
56582;BME280;42463;52.214;21.238;2023-04-08T04:21:56;101109.05;;;5.41;61.39
56582;BME280;42463;52.214;21.238;2023-04-08T04:24:00;101114.71;;;5.40;61.50
56582;BME280;42463;52.214;21.238;2023-04-08T04:26:07;101109.63;;;5.41;61.47
56582;BME280;42463;52.214;21.238;2023-04-08T04:28:12;101111.16;;;5.42;61.56
56582;BME280;42463;52.214;21.238;2023-04-08T04:30:16;101117.48;;;5.43;61.67
56582;BME280;42463;52.214;21.238;2023-04-08T04:32:21;101117.41;;;5.43;61.69
56582;BME280;42463;52.214;21.238;2023-04-08T04:34:25;101115.38;;;5.44;61.75
56582;BME280;42463;52.214;21.238;2023-04-08T04:36:29;101113.97;;;5.39;61.85
56582;BME280;42463;52.214;21.238;2023-04-08T04:38:34;101120.57;;;5.47;61.69
56582;BME280;42463;52.214;21.238;2023-04-08T04:40:38;101120.98;;;5.48;61.61
56582;BME280;42463;52.214;21.238;2023-04-08T04:42:43;101117.09;;;5.44;61.72
56582;BME280;42463;52.214;21.238;2023-04-08T04:44:47;101126.45;;;5.50;61.69
56582;BME280;42463;52.214;21.238;2023-04-08T04:46:51;101129.84;;;5.50;61.79
56582;BME280;42463;52.214;21.238;2023-04-08T04:48:55;101125.46;;;5.52;61.92
56582;BME280;42463;52.214;21.238;2023-04-08T04:50:59;101120.41;;;5.52;61.89
56582;BME280;42463;52.214;21.238;2023-04-08T04:53:05;101126.92;;;5.53;61.89
56582;BME280;42463;52.214;21.238;2023-04-08T04:55:09;101130.07;;;5.55;62.16
56582;BME280;42463;52.214;21.238;2023-04-08T04:57:13;101130.61;;;5.58;62.09
56582;BME280;42463;52.214;21.238;2023-04-08T04:59:17;101130.49;;;5.61;62.21
56582;BME280;42463;52.214;21.238;2023-04-08T05:01:21;101130.13;;;5.62;62.06
56582;BME280;42463;52.214;21.238;2023-04-08T05:03:26;101136.21;;;5.62;62.11
56582;BME280;42463;52.214;21.238;2023-04-08T05:05:30;101141.10;;;5.65;62.15
56582;BME280;42463;52.214;21.238;2023-04-08T05:07:35;101141.23;;;5.66;62.17
56582;BME280;42463;52.214;21.238;2023-04-08T05:09:39;101141.98;;;5.67;62.39
56582;BME280;42463;52.214;21.238;2023-04-08T05:11:44;101145.29;;;5.71;62.39
56582;BME280;42463;52.214;21.238;2023-04-08T05:13:48;101144.34;;;5.72;62.35
56582;BME280;42463;52.214;21.238;2023-04-08T05:15:52;101138.88;;;5.76;62.42
56582;BME280;42463;52.214;21.238;2023-04-08T05:17:56;101135.11;;;5.75;62.69
56582;BME280;42463;52.214;21.238;2023-04-08T05:20:00;101147.92;;;5.84;62.50
56582;BME280;42463;52.214;21.238;2023-04-08T05:22:04;101143.86;;;5.87;62.63
56582;BME280;42463;52.214;21.238;2023-04-08T05:24:08;101145.73;;;5.93;62.68
56582;BME280;42463;52.214;21.238;2023-04-08T05:26:12;101145.27;;;5.97;62.48
56582;BME280;42463;52.214;21.238;2023-04-08T05:28:16;101143.58;;;5.96;62.35
56582;BME280;42463;52.214;21.238;2023-04-08T05:30:20;101144.86;;;5.94;62.43
56582;BME280;42463;52.214;21.238;2023-04-08T05:32:24;101143.73;;;5.93;62.42
56582;BME280;42463;52.214;21.238;2023-04-08T05:34:29;101141.38;;;5.92;62.60
56582;BME280;42463;52.214;21.238;2023-04-08T05:36:34;101148.55;;;5.94;62.84
56582;BME280;42463;52.214;21.238;2023-04-08T05:38:38;101150.45;;;5.95;62.93
56582;BME280;42463;52.214;21.238;2023-04-08T05:40:44;101147.80;;;6.01;63.03
56582;BME280;42463;52.214;21.238;2023-04-08T05:42:48;101152.65;;;6.08;63.07
56582;BME280;42463;52.214;21.238;2023-04-08T05:44:52;101154.55;;;6.13;62.80
56582;BME280;42463;52.214;21.238;2023-04-08T05:46:57;101157.00;;;6.15;62.70
56582;BME280;42463;52.214;21.238;2023-04-08T05:49:02;101158.75;;;6.22;62.93
56582;BME280;42463;52.214;21.238;2023-04-08T05:51:06;101158.77;;;6.28;62.76
56582;BME280;42463;52.214;21.238;2023-04-08T05:53:15;101160.21;;;6.36;62.87
56582;BME280;42463;52.214;21.238;2023-04-08T05:55:19;101161.00;;;6.44;62.77
56582;BME280;42463;52.214;21.238;2023-04-08T05:57:24;101163.52;;;6.52;62.81
56582;BME280;42463;52.214;21.238;2023-04-08T05:59:28;101165.91;;;6.61;62.70
56582;BME280;42463;52.214;21.238;2023-04-08T06:01:32;101172.09;;;6.69;62.39
56582;BME280;42463;52.214;21.238;2023-04-08T06:03:36;101175.39;;;6.75;62.45
56582;BME280;42463;52.214;21.238;2023-04-08T06:05:40;101170.14;;;6.80;62.34
56582;BME280;42463;52.214;21.238;2023-04-08T06:07:44;101171.70;;;6.86;62.36
56582;BME280;42463;52.214;21.238;2023-04-08T06:09:48;101170.73;;;6.94;62.16
56582;BME280;42463;52.214;21.238;2023-04-08T06:11:53;101169.42;;;7.02;62.04
56582;BME280;42463;52.214;21.238;2023-04-08T06:13:58;101171.42;;;7.11;62.16
56582;BME280;42463;52.214;21.238;2023-04-08T06:16:10;101168.15;;;7.19;61.85
56582;BME280;42463;52.214;21.238;2023-04-08T06:18:14;101170.00;;;7.26;61.66
56582;BME280;42463;52.214;21.238;2023-04-08T06:20:19;101170.54;;;7.32;61.51
56582;BME280;42463;52.214;21.238;2023-04-08T06:22:25;101175.20;;;7.40;61.48
56582;BME280;42463;52.214;21.238;2023-04-08T06:24:29;101177.70;;;7.46;61.18
56582;BME280;42463;52.214;21.238;2023-04-08T06:26:33;101168.67;;;7.49;60.94
56582;BME280;42463;52.214;21.238;2023-04-08T06:28:37;101175.63;;;7.61;60.81
56582;BME280;42463;52.214;21.238;2023-04-08T06:30:41;101177.30;;;7.68;60.77
56582;BME280;42463;52.214;21.238;2023-04-08T06:32:46;101173.05;;;7.74;60.57
56582;BME280;42463;52.214;21.238;2023-04-08T06:34:50;101174.95;;;7.82;60.37
56582;BME280;42463;52.214;21.238;2023-04-08T06:36:54;101181.08;;;7.93;59.92
56582;BME280;42463;52.214;21.238;2023-04-08T06:38:59;101177.51;;;8.04;59.87
56582;BME280;42463;52.214;21.238;2023-04-08T06:41:04;101179.67;;;8.14;59.62
56582;BME280;42463;52.214;21.238;2023-04-08T06:43:08;101181.33;;;8.23;59.51
56582;BME280;42463;52.214;21.238;2023-04-08T06:45:15;101177.20;;;8.33;59.49
56582;BME280;42463;52.214;21.238;2023-04-08T06:47:19;101176.85;;;8.42;58.98
56582;BME280;42463;52.214;21.238;2023-04-08T06:49:23;101181.29;;;8.52;59.04
56582;BME280;42463;52.214;21.238;2023-04-08T06:51:28;101172.52;;;8.55;58.44
56582;BME280;42463;52.214;21.238;2023-04-08T06:53:33;101182.59;;;8.69;58.25
56582;BME280;42463;52.214;21.238;2023-04-08T06:55:37;101186.49;;;8.78;57.94
56582;BME280;42463;52.214;21.238;2023-04-08T06:57:42;101183.63;;;8.89;58.10
56582;BME280;42463;52.214;21.238;2023-04-08T06:59:46;101175.43;;;8.96;57.75
56582;BME280;42463;52.214;21.238;2023-04-08T07:01:50;101184.58;;;9.12;57.63
56582;BME280;42463;52.214;21.238;2023-04-08T07:03:54;101187.03;;;9.23;57.28
56582;BME280;42463;52.214;21.238;2023-04-08T07:05:58;101183.55;;;9.32;56.51
56582;BME280;42463;52.214;21.238;2023-04-08T07:08:02;101187.70;;;9.42;56.57
56582;BME280;42463;52.214;21.238;2023-04-08T07:10:08;101189.62;;;9.54;56.43
56582;BME280;42463;52.214;21.238;2023-04-08T07:12:12;101182.30;;;9.66;55.63
56582;BME280;42463;52.214;21.238;2023-04-08T07:14:16;101180.61;;;9.74;55.16
56582;BME280;42463;52.214;21.238;2023-04-08T07:16:21;101183.91;;;9.82;54.96
56582;BME280;42463;52.214;21.238;2023-04-08T07:18:25;101187.05;;;9.87;54.50
56582;BME280;42463;52.214;21.238;2023-04-08T07:20:29;101187.36;;;9.91;54.44
56582;BME280;42463;52.214;21.238;2023-04-08T07:22:33;101192.48;;;9.94;53.98
56582;BME280;42463;52.214;21.238;2023-04-08T07:24:37;101190.55;;;9.97;53.90
56582;BME280;42463;52.214;21.238;2023-04-08T07:26:44;101196.19;;;10.03;54.33
56582;BME280;42463;52.214;21.238;2023-04-08T07:28:49;101198.14;;;10.12;54.42
56582;BME280;42463;52.214;21.238;2023-04-08T07:30:54;101197.75;;;10.21;54.51
56582;BME280;42463;52.214;21.238;2023-04-08T07:32:59;101198.48;;;10.31;53.80
56582;BME280;42463;52.214;21.238;2023-04-08T07:35:03;101200.11;;;10.39;53.81
56582;BME280;42463;52.214;21.238;2023-04-08T07:37:07;101198.52;;;10.46;53.90
56582;BME280;42463;52.214;21.238;2023-04-08T07:39:11;101198.10;;;10.59;53.20
56582;BME280;42463;52.214;21.238;2023-04-08T07:41:15;101198.39;;;10.64;53.19
56582;BME280;42463;52.214;21.238;2023-04-08T07:43:19;101198.41;;;10.71;53.01
56582;BME280;42463;52.214;21.238;2023-04-08T07:45:23;101198.54;;;10.81;53.24
56582;BME280;42463;52.214;21.238;2023-04-08T07:47:28;101196.37;;;10.94;53.13
56582;BME280;42463;52.214;21.238;2023-04-08T07:49:32;101201.04;;;11.06;52.45
56582;BME280;42463;52.214;21.238;2023-04-08T07:51:36;101200.23;;;11.14;52.19
56582;BME280;42463;52.214;21.238;2023-04-08T07:53:40;101197.50;;;11.24;52.13
56582;BME280;42463;52.214;21.238;2023-04-08T07:55:44;101197.95;;;11.35;53.29
56582;BME280;42463;52.214;21.238;2023-04-08T07:57:48;101198.90;;;11.48;53.38
56582;BME280;42463;52.214;21.238;2023-04-08T07:59:52;101195.89;;;11.61;52.28
56582;BME280;42463;52.214;21.238;2023-04-08T08:01:57;101198.46;;;11.73;51.94
56582;BME280;42463;52.214;21.238;2023-04-08T08:04:01;101202.46;;;11.84;51.27
56582;BME280;42463;52.214;21.238;2023-04-08T08:06:05;101195.95;;;11.95;51.11
56582;BME280;42463;52.214;21.238;2023-04-08T08:08:09;101200.27;;;12.05;50.88
56582;BME280;42463;52.214;21.238;2023-04-08T08:10:14;101200.48;;;12.16;50.58
56582;BME280;42463;52.214;21.238;2023-04-08T08:12:18;101199.19;;;12.24;50.10
56582;BME280;42463;52.214;21.238;2023-04-08T08:14:23;101187.39;;;12.24;49.65
56582;BME280;42463;52.214;21.238;2023-04-08T08:16:28;101200.91;;;12.39;49.51
56582;BME280;42463;52.214;21.238;2023-04-08T08:18:33;101201.08;;;12.48;49.80
56582;BME280;42463;52.214;21.238;2023-04-08T08:20:37;101204.11;;;12.60;49.80
56582;BME280;42463;52.214;21.238;2023-04-08T08:22:41;101201.05;;;12.70;49.38
56582;BME280;42463;52.214;21.238;2023-04-08T08:24:47;101198.02;;;12.79;49.05
56582;BME280;42463;52.214;21.238;2023-04-08T08:26:51;101197.02;;;12.88;48.95
56582;BME280;42463;52.214;21.238;2023-04-08T08:28:55;101197.32;;;12.95;48.52
56582;BME280;42463;52.214;21.238;2023-04-08T08:30:59;101197.05;;;13.02;48.15
56582;BME280;42463;52.214;21.238;2023-04-08T08:33:04;101196.98;;;13.10;48.09
56582;BME280;42463;52.214;21.238;2023-04-08T08:35:09;101198.59;;;13.18;47.58
56582;BME280;42463;52.214;21.238;2023-04-08T08:37:13;101200.39;;;13.26;47.65
56582;BME280;42463;52.214;21.238;2023-04-08T08:39:17;101193.84;;;13.33;47.25
56582;BME280;42463;52.214;21.238;2023-04-08T08:41:21;101189.25;;;13.41;46.62
56582;BME280;42463;52.214;21.238;2023-04-08T08:43:25;101192.05;;;13.48;46.43
56582;BME280;42463;52.214;21.238;2023-04-08T08:45:31;101191.55;;;13.54;46.32
56582;BME280;42463;52.214;21.238;2023-04-08T08:47:36;101189.61;;;13.60;46.26
56582;BME280;42463;52.214;21.238;2023-04-08T08:49:40;101186.74;;;13.67;46.31
56582;BME280;42463;52.214;21.238;2023-04-08T08:51:45;101182.34;;;13.73;45.89
56582;BME280;42463;52.214;21.238;2023-04-08T08:53:49;101188.15;;;13.82;45.63
56582;BME280;42463;52.214;21.238;2023-04-08T08:55:53;101179.70;;;13.82;44.88
56582;BME280;42463;52.214;21.238;2023-04-08T08:57:58;101191.30;;;13.84;44.72
56582;BME280;42463;52.214;21.238;2023-04-08T09:00:02;101188.27;;;13.87;45.18
56582;BME280;42463;52.214;21.238;2023-04-08T09:02:08;101190.02;;;13.93;45.21
56582;BME280;42463;52.214;21.238;2023-04-08T09:04:25;101193.77;;;13.99;44.67
56582;BME280;42463;52.214;21.238;2023-04-08T09:06:30;101198.38;;;14.06;44.86
56582;BME280;42463;52.214;21.238;2023-04-08T09:08:34;101194.26;;;14.14;45.18
56582;BME280;42463;52.214;21.238;2023-04-08T09:10:39;101191.45;;;14.23;44.63
56582;BME280;42463;52.214;21.238;2023-04-08T09:12:53;101196.38;;;14.32;44.17
56582;BME280;42463;52.214;21.238;2023-04-08T09:15:06;101196.98;;;14.42;43.95
56582;BME280;42463;52.214;21.238;2023-04-08T09:17:10;101196.92;;;14.49;43.91
56582;BME280;42463;52.214;21.238;2023-04-08T09:19:15;101198.68;;;14.56;43.81
56582;BME280;42463;52.214;21.238;2023-04-08T09:21:21;101196.83;;;14.61;43.28
56582;BME280;42463;52.214;21.238;2023-04-08T09:23:27;101195.86;;;14.63;42.87
56582;BME280;42463;52.214;21.238;2023-04-08T09:25:40;101194.02;;;14.59;42.32
56582;BME280;42463;52.214;21.238;2023-04-08T09:27:44;101200.43;;;14.61;42.89
56582;BME280;42463;52.214;21.238;2023-04-08T09:29:49;101200.87;;;14.61;42.29
56582;BME280;42463;52.214;21.238;2023-04-08T09:31:56;101202.91;;;14.58;42.25
56582;BME280;42463;52.214;21.238;2023-04-08T09:34:08;101205.40;;;14.56;42.85
56582;BME280;42463;52.214;21.238;2023-04-08T09:36:12;101202.04;;;14.57;42.70
56582;BME280;42463;52.214;21.238;2023-04-08T09:38:17;101203.68;;;14.57;42.63
56582;BME280;42463;52.214;21.238;2023-04-08T09:40:21;101199.58;;;14.57;43.07
56582;BME280;42463;52.214;21.238;2023-04-08T09:42:28;101203.42;;;14.67;43.43
56582;BME280;42463;52.214;21.238;2023-04-08T09:44:33;101196.65;;;14.74;43.38
56582;BME280;42463;52.214;21.238;2023-04-08T09:46:43;101197.34;;;14.89;43.14
56582;BME280;42463;52.214;21.238;2023-04-08T09:48:57;101199.64;;;14.98;42.70
56582;BME280;42463;52.214;21.238;2023-04-08T09:51:04;101200.73;;;15.00;41.73
56582;BME280;42463;52.214;21.238;2023-04-08T09:53:10;101193.85;;;14.99;42.49
56582;BME280;42463;52.214;21.238;2023-04-08T09:55:17;101197.58;;;15.01;42.88
56582;BME280;42463;52.214;21.238;2023-04-08T09:57:27;101194.31;;;15.04;43.04
56582;BME280;42463;52.214;21.238;2023-04-08T09:59:33;101190.49;;;15.06;42.55
56582;BME280;42463;52.214;21.238;2023-04-08T10:01:42;101180.73;;;15.01;43.07
56582;BME280;42463;52.214;21.238;2023-04-08T10:03:48;101183.45;;;15.05;42.61
56582;BME280;42463;52.214;21.238;2023-04-08T10:05:55;101185.76;;;15.08;42.57
56582;BME280;42463;52.214;21.238;2023-04-08T10:08:01;101185.55;;;15.10;42.18
56582;BME280;42463;52.214;21.238;2023-04-08T10:10:07;101183.14;;;15.11;42.06
56582;BME280;42463;52.214;21.238;2023-04-08T10:12:12;101181.59;;;15.17;42.00
56582;BME280;42463;52.214;21.238;2023-04-08T10:14:18;101182.12;;;15.24;41.77
56582;BME280;42463;52.214;21.238;2023-04-08T10:16:24;101186.02;;;15.30;42.00
56582;BME280;42463;52.214;21.238;2023-04-08T10:18:32;101180.80;;;15.37;41.75
56582;BME280;42463;52.214;21.238;2023-04-08T10:20:43;101173.73;;;15.46;41.68
56582;BME280;42463;52.214;21.238;2023-04-08T10:22:47;101177.14;;;15.54;41.59
56582;BME280;42463;52.214;21.238;2023-04-08T10:27:12;101179.05;;;15.68;41.70
56582;BME280;42463;52.214;21.238;2023-04-08T10:29:37;101176.84;;;15.81;41.72
56582;BME280;42463;52.214;21.238;2023-04-08T10:31:41;101176.04;;;15.95;41.41
56582;BME280;42463;52.214;21.238;2023-04-08T10:33:45;101176.38;;;16.09;40.98
56582;BME280;42463;52.214;21.238;2023-04-08T10:35:51;101176.66;;;16.18;40.48
56582;BME280;42463;52.214;21.238;2023-04-08T10:37:56;101176.05;;;16.26;40.84
56582;BME280;42463;52.214;21.238;2023-04-08T10:40:00;101174.30;;;16.36;40.34
56582;BME280;42463;52.214;21.238;2023-04-08T10:42:04;101173.55;;;16.45;40.03
56582;BME280;42463;52.214;21.238;2023-04-08T10:44:17;101174.13;;;16.56;40.30
56582;BME280;42463;52.214;21.238;2023-04-08T10:46:21;101171.20;;;16.67;39.77
56582;BME280;42463;52.214;21.238;2023-04-08T10:48:27;101169.72;;;16.74;39.52
56582;BME280;42463;52.214;21.238;2023-04-08T10:50:31;101167.14;;;16.81;39.55
56582;BME280;42463;52.214;21.238;2023-04-08T10:52:35;101164.37;;;16.89;39.06
56582;BME280;42463;52.214;21.238;2023-04-08T10:54:48;101162.44;;;16.93;38.90
56582;BME280;42463;52.214;21.238;2023-04-08T10:56:52;101160.23;;;16.95;38.72